createdAt,value
2023-04-27T00:00:51.656Z,36.27
2023-04-27T00:01:51.764Z,36.26
2023-04-27T00:02:51.804Z,36.31
2023-04-27T00:03:51.824Z,36.31
2023-04-27T00:04:51.942Z,36.31
2023-04-27T00:05:51.949Z,36.28
2023-04-27T00:06:51.743Z,36.28
2023-04-27T00:07:51.756Z,36.27
2023-04-27T00:08:51.779Z,36.27
2023-04-27T00:09:51.891Z,36.27
2023-04-27T00:10:51.816Z,36.24
2023-04-27T00:11:51.842Z,36.27
2023-04-27T00:12:51.858Z,36.27
2023-04-27T00:13:51.867Z,36.24
2023-04-27T00:14:51.894Z,36.24
2023-04-27T00:15:51.941Z,36.25
2023-04-27T00:16:51.982Z,36.25
2023-04-27T00:17:52.022Z,36.26
2023-04-27T00:18:51.961Z,36.25
2023-04-27T00:19:51.989Z,36.25
2023-04-27T00:20:52.015Z,36.24
2023-04-27T00:21:52.029Z,36.18
2023-04-27T00:22:52.061Z,36.23
2023-04-27T00:23:52.088Z,36.21
2023-04-27T00:24:52.095Z,36.22
2023-04-27T00:25:52.116Z,36.24
2023-04-27T00:26:52.229Z,36.27
2023-04-27T00:27:52.163Z,36.23
2023-04-27T00:28:52.174Z,36.26
2023-04-27T00:29:52.196Z,36.23
2023-04-27T00:30:52.221Z,36.24
2023-04-27T00:31:52.280Z,36.25
2023-04-27T00:32:52.328Z,36.21
2023-04-27T00:33:52.283Z,36.22
2023-04-27T00:34:52.318Z,36.23
2023-04-27T00:35:52.339Z,36.18
2023-04-27T00:36:52.346Z,36.24
2023-04-27T00:37:52.370Z,36.20
2023-04-27T00:38:52.386Z,36.24
2023-04-27T00:39:52.475Z,36.21
2023-04-27T00:40:52.456Z,36.22
2023-04-27T00:41:52.456Z,36.23
2023-04-27T00:42:52.489Z,36.24
2023-04-27T00:43:52.506Z,36.21
2023-04-27T00:44:52.522Z,36.21
2023-04-27T00:45:52.620Z,36.22
2023-04-27T00:46:52.586Z,36.20
2023-04-27T00:47:52.682Z,36.22
2023-04-27T00:48:52.674Z,36.22
2023-04-27T00:49:52.644Z,36.21
2023-04-27T00:50:52.660Z,36.21
2023-04-27T00:51:52.687Z,36.18
2023-04-27T00:52:52.713Z,36.24
2023-04-27T00:53:52.733Z,36.26
2023-04-27T00:54:52.784Z,36.24
2023-04-27T00:55:52.788Z,36.25
2023-04-27T00:56:52.833Z,36.19
2023-04-27T00:57:52.846Z,36.22
2023-04-27T00:58:52.842Z,36.21
2023-04-27T00:59:52.859Z,36.21
2023-04-27T01:00:52.929Z,36.22
2023-04-27T01:01:52.911Z,36.22
2023-04-27T01:02:53.115Z,36.16
2023-04-27T01:03:53.119Z,36.21
2023-04-27T01:04:52.980Z,36.22
2023-04-27T01:05:53.010Z,36.21
2023-04-27T01:06:53.104Z,36.20
2023-04-27T01:07:53.065Z,36.20
2023-04-27T01:08:53.084Z,36.22
2023-04-27T01:09:53.103Z,36.20
2023-04-27T01:10:53.130Z,36.21
2023-04-27T01:11:53.172Z,36.26
2023-04-27T01:12:53.184Z,36.20
2023-04-27T01:13:53.215Z,36.21
2023-04-27T01:14:53.239Z,36.20
2023-04-27T01:15:53.297Z,36.16
2023-04-27T01:16:53.365Z,36.21
2023-04-27T01:17:53.451Z,36.18
2023-04-27T01:18:53.338Z,36.20
2023-04-27T01:19:53.370Z,36.17
2023-04-27T01:20:53.400Z,36.16
2023-04-27T01:21:53.425Z,36.23
2023-04-27T01:22:53.467Z,36.15
2023-04-27T01:23:53.471Z,36.16
2023-04-27T01:24:53.504Z,36.16
2023-04-27T01:25:53.519Z,36.16
2023-04-27T01:26:53.553Z,36.15
2023-04-27T01:27:53.575Z,36.13
2023-04-27T01:28:53.616Z,36.17
2023-04-27T01:29:53.625Z,36.18
2023-04-27T01:30:53.685Z,36.15
2023-04-27T01:31:53.674Z,36.13
2023-04-27T01:32:53.734Z,36.16
2023-04-27T01:33:53.731Z,36.16
2023-04-27T01:34:53.750Z,36.14
2023-04-27T01:35:53.774Z,36.16
2023-04-27T01:36:53.789Z,36.16
2023-04-27T01:37:53.825Z,36.16
2023-04-27T01:38:53.847Z,36.15
2023-04-27T01:39:53.877Z,36.17
2023-04-27T01:40:53.900Z,36.18
2023-04-27T01:41:54.054Z,36.15
2023-04-27T01:42:53.968Z,36.16
2023-04-27T01:43:53.981Z,36.12
2023-04-27T01:44:54.016Z,36.11
2023-04-27T01:45:54.057Z,36.12
2023-04-27T01:46:54.085Z,36.11
2023-04-27T01:47:54.140Z,36.13
2023-04-27T01:48:54.103Z,36.12
2023-04-27T01:49:54.123Z,36.13
2023-04-27T01:50:54.161Z,36.13
2023-04-27T01:51:54.178Z,36.08
2023-04-27T01:52:54.232Z,36.11
2023-04-27T01:53:54.242Z,36.12
2023-04-27T01:54:54.265Z,36.11
2023-04-27T01:55:54.288Z,36.06
2023-04-27T01:56:54.311Z,36.11
2023-04-27T01:57:54.430Z,36.11
2023-04-27T01:58:54.357Z,36.08
2023-04-27T01:59:54.388Z,36.08
2023-04-27T02:00:54.409Z,36.08
2023-04-27T02:01:54.446Z,36.08
2023-04-27T02:02:55.556Z,36.07
2023-04-27T02:03:54.657Z,36.10
2023-04-27T02:04:54.708Z,36.06
2023-04-27T02:05:54.549Z,36.07
2023-04-27T02:06:54.572Z,36.04
2023-04-27T02:07:54.589Z,36.06
2023-04-27T02:08:54.612Z,36.03
2023-04-27T02:09:54.640Z,36.05
2023-04-27T02:10:54.654Z,36.06
2023-04-27T02:11:54.690Z,36.02
2023-04-27T02:12:54.717Z,36.06
2023-04-27T02:13:54.741Z,36.07
2023-04-27T02:14:54.769Z,36.06
2023-04-27T02:15:54.788Z,36.04
2023-04-27T02:16:54.801Z,36.05
2023-04-27T02:17:54.864Z,36.04
2023-04-27T02:18:54.856Z,36.05
2023-04-27T02:19:54.960Z,36.04
2023-04-27T02:20:54.994Z,36.08
2023-04-27T02:21:54.965Z,36.03
2023-04-27T02:22:54.958Z,36.01
2023-04-27T02:23:54.984Z,35.98
2023-04-27T02:24:55.022Z,36.01
2023-04-27T02:25:55.941Z,36.02
2023-04-27T02:26:55.060Z,35.98
2023-04-27T02:27:55.091Z,36.06
2023-04-27T02:28:55.110Z,36.02
2023-04-27T02:29:55.141Z,36.04
2023-04-27T02:30:55.156Z,36.05
2023-04-27T02:31:55.267Z,36.02
2023-04-27T02:32:55.284Z,36.01
2023-04-27T02:33:55.233Z,36.06
2023-04-27T02:34:55.258Z,36.01
2023-04-27T02:35:55.280Z,36.02
2023-04-27T02:36:55.304Z,36.01
2023-04-27T02:37:55.417Z,36.01
2023-04-27T02:38:55.366Z,35.98
2023-04-27T02:39:55.397Z,36.00
2023-04-27T02:40:55.402Z,35.97
2023-04-27T02:41:55.441Z,36.01
2023-04-27T02:42:55.460Z,36.03
2023-04-27T02:43:55.505Z,36.01
2023-04-27T02:44:55.505Z,35.98
2023-04-27T02:45:55.523Z,35.98
2023-04-27T02:46:55.607Z,35.98
2023-04-27T02:47:56.017Z,35.98
2023-04-27T02:48:55.712Z,35.99
2023-04-27T02:49:55.636Z,36.00
2023-04-27T02:50:55.671Z,36.02
2023-04-27T02:51:55.688Z,36.02
2023-04-27T02:52:55.701Z,36.02
2023-04-27T02:53:55.731Z,36.02
2023-04-27T02:54:55.756Z,35.96
2023-04-27T02:55:55.776Z,35.99
2023-04-27T02:56:55.815Z,35.97
2023-04-27T02:57:55.848Z,35.98
2023-04-27T02:58:55.871Z,35.99
2023-04-27T02:59:55.901Z,35.97
2023-04-27T03:00:55.958Z,35.98
2023-04-27T03:01:55.950Z,35.99
2023-04-27T03:02:56.114Z,36.00
2023-04-27T03:03:56.184Z,35.98
2023-04-27T03:04:56.050Z,36.01
2023-04-27T03:05:56.058Z,36.01
2023-04-27T03:06:56.076Z,35.98
2023-04-27T03:07:56.098Z,35.98
2023-04-27T03:08:56.167Z,35.98
2023-04-27T03:09:56.226Z,35.97
2023-04-27T03:10:56.178Z,35.97
2023-04-27T03:11:56.188Z,35.96
2023-04-27T03:12:56.214Z,35.98
2023-04-27T03:13:56.245Z,35.96
2023-04-27T03:14:56.264Z,35.97
2023-04-27T03:15:56.306Z,35.94
2023-04-27T03:16:56.335Z,35.95
2023-04-27T03:17:56.502Z,35.97
2023-04-27T03:18:56.375Z,35.93
2023-04-27T03:19:56.399Z,35.93
2023-04-27T03:20:56.444Z,35.93
2023-04-27T03:21:56.448Z,35.93
2023-04-27T03:22:56.461Z,35.97
2023-04-27T03:23:56.489Z,35.90
2023-04-27T03:24:56.504Z,35.93
2023-04-27T03:25:56.543Z,35.90
2023-04-27T03:26:56.579Z,35.98
2023-04-27T03:27:56.605Z,35.96
2023-04-27T03:28:56.614Z,35.96
2023-04-27T03:29:56.714Z,35.95
2023-04-27T03:30:56.667Z,35.92
2023-04-27T03:31:56.776Z,35.92
2023-04-27T03:32:56.727Z,35.93
2023-04-27T03:33:56.752Z,35.94
2023-04-27T03:34:56.775Z,35.93
2023-04-27T03:35:56.872Z,35.94
2023-04-27T03:36:56.821Z,35.90
2023-04-27T03:37:56.855Z,35.89
2023-04-27T03:38:56.876Z,35.93
2023-04-27T03:39:56.909Z,35.94
2023-04-27T03:40:56.933Z,35.95
2023-04-27T03:41:56.954Z,35.94
2023-04-27T03:42:59.037Z,35.94
2023-04-27T03:43:57.010Z,35.94
2023-04-27T03:44:57.034Z,35.92
2023-04-27T03:45:57.092Z,35.97
2023-04-27T03:46:57.099Z,35.92
2023-04-27T03:47:57.536Z,35.92
2023-04-27T03:48:57.213Z,35.93
2023-04-27T03:49:57.175Z,35.90
2023-04-27T03:50:57.218Z,35.93
2023-04-27T03:51:57.233Z,35.92
2023-04-27T03:52:57.272Z,35.94
2023-04-27T03:53:57.293Z,35.92
2023-04-27T03:54:57.327Z,35.94
2023-04-27T03:55:57.364Z,35.93
2023-04-27T03:56:57.386Z,35.89
2023-04-27T03:57:57.481Z,35.94
2023-04-27T03:58:57.452Z,35.93
2023-04-27T03:59:57.465Z,35.93
2023-04-27T04:00:57.497Z,35.86
2023-04-27T04:01:59.500Z,35.92
2023-04-27T04:02:58.695Z,35.90
2023-04-27T04:03:57.874Z,35.93
2023-04-27T04:04:57.642Z,35.92
2023-04-27T04:05:57.434Z,35.89
2023-04-27T04:06:57.413Z,35.95
2023-04-27T04:07:57.397Z,35.92
2023-04-27T04:08:57.377Z,35.90
2023-04-27T04:09:57.354Z,35.92
2023-04-27T04:10:57.396Z,35.93
2023-04-27T04:11:57.319Z,35.88
2023-04-27T04:12:57.297Z,35.92
2023-04-27T04:13:57.284Z,35.87
2023-04-27T04:14:57.254Z,35.89
2023-04-27T04:15:57.262Z,35.89
2023-04-27T04:16:57.214Z,35.89
2023-04-27T04:17:57.234Z,35.89
2023-04-27T04:18:57.179Z,35.89
2023-04-27T04:19:57.162Z,35.92
2023-04-27T04:20:57.160Z,35.86
2023-04-27T04:21:57.132Z,35.89
2023-04-27T04:22:57.126Z,35.85
2023-04-27T04:23:57.110Z,35.88
2023-04-27T04:24:57.077Z,35.92
2023-04-27T04:25:57.064Z,35.88
2023-04-27T04:26:57.058Z,35.90
2023-04-27T04:27:57.097Z,35.90
2023-04-27T04:28:57.134Z,35.87
2023-04-27T04:29:57.215Z,35.92
2023-04-27T04:30:57.257Z,35.89
2023-04-27T04:31:57.235Z,35.89
2023-04-27T04:32:57.297Z,35.91
2023-04-27T04:33:57.310Z,35.86
2023-04-27T04:34:57.348Z,35.87
2023-04-27T04:35:57.383Z,35.92
2023-04-27T04:36:57.456Z,35.87
2023-04-27T04:37:57.457Z,35.90
2023-04-27T04:38:57.496Z,35.84
2023-04-27T04:39:57.528Z,35.86
2023-04-27T04:40:57.566Z,35.89
2023-04-27T04:41:57.592Z,35.86
2023-04-27T04:42:58.002Z,35.82
2023-04-27T04:43:57.659Z,35.89
2023-04-27T04:44:57.699Z,35.84
2023-04-27T04:45:57.733Z,35.85
2023-04-27T04:46:57.809Z,35.90
2023-04-27T04:47:57.897Z,35.82
2023-04-27T04:48:57.847Z,35.85
2023-04-27T04:49:57.883Z,35.86
2023-04-27T04:50:57.920Z,35.89
2023-04-27T04:51:57.948Z,35.90
2023-04-27T04:52:58.049Z,35.87
2023-04-27T04:53:58.637Z,35.84
2023-04-27T04:54:58.050Z,35.87
2023-04-27T04:55:58.098Z,35.87
2023-04-27T04:56:58.218Z,35.82
2023-04-27T04:57:58.172Z,35.86
2023-04-27T04:58:58.208Z,35.89
2023-04-27T04:59:58.251Z,35.86
2023-04-27T05:00:58.294Z,35.84
2023-04-27T05:01:59.102Z,35.87
2023-04-27T05:02:58.447Z,35.85
2023-04-27T05:03:58.602Z,35.85
2023-04-27T05:04:58.467Z,35.81
2023-04-27T05:05:58.482Z,35.87
2023-04-27T05:06:58.527Z,35.84
2023-04-27T05:07:58.560Z,35.85
2023-04-27T05:08:58.603Z,35.84
2023-04-27T05:09:58.652Z,35.84
2023-04-27T05:10:58.679Z,35.83
2023-04-27T05:11:58.719Z,35.81
2023-04-27T05:12:58.807Z,35.86
2023-04-27T05:13:58.787Z,35.86
2023-04-27T05:14:58.831Z,35.85
2023-04-27T05:15:58.960Z,35.85
2023-04-27T05:16:58.892Z,35.85
2023-04-27T05:17:58.980Z,35.91
2023-04-27T05:18:59.494Z,35.86
2023-04-27T05:19:59.232Z,35.91
2023-04-27T05:20:59.043Z,35.94
2023-04-27T05:21:59.107Z,35.99
2023-04-27T05:22:59.172Z,36.09
2023-04-27T05:23:59.151Z,36.52
2023-04-27T05:24:59.227Z,36.53
2023-04-27T05:25:59.514Z,36.80
2023-04-27T05:27:02.037Z,37.27
2023-04-27T05:27:59.237Z,37.50
2023-04-27T05:28:59.217Z,37.30
2023-04-27T05:29:59.191Z,37.28
2023-04-27T05:30:59.165Z,37.31
2023-04-27T05:31:59.238Z,37.35
2023-04-27T05:32:59.191Z,37.35
2023-04-27T05:33:59.124Z,37.50
2023-04-27T05:34:59.078Z,37.61
2023-04-27T05:35:59.054Z,37.79
2023-04-27T05:36:59.024Z,37.91
2023-04-27T05:37:59.008Z,38.01
2023-04-27T05:38:59.510Z,38.10
2023-04-27T05:39:58.950Z,38.26
2023-04-27T05:40:59.024Z,38.35
2023-04-27T05:41:58.941Z,38.48
2023-04-27T05:42:58.871Z,38.66
2023-04-27T05:43:58.905Z,38.85
2023-04-27T05:44:58.821Z,38.86
2023-04-27T05:45:58.861Z,39.02
2023-04-27T05:46:58.776Z,39.12
2023-04-27T05:47:58.807Z,39.26
2023-04-27T05:48:58.728Z,39.41
2023-04-27T05:49:58.699Z,39.57
2023-04-27T05:50:59.567Z,39.77
2023-04-27T05:51:58.638Z,39.86
2023-04-27T05:52:58.605Z,40.07
2023-04-27T05:53:58.585Z,40.15
2023-04-27T05:54:58.537Z,40.15
2023-04-27T05:55:58.502Z,40.32
2023-04-27T05:56:58.493Z,40.41
2023-04-27T05:58:07.592Z,40.56
2023-04-27T05:59:01.780Z,40.68
2023-04-27T05:59:58.388Z,40.69
2023-04-27T06:00:58.390Z,40.87
2023-04-27T06:01:58.396Z,40.99
2023-04-27T06:02:58.461Z,41.10
2023-04-27T06:03:58.343Z,41.20
2023-04-27T06:04:58.253Z,41.27
2023-04-27T06:05:59.145Z,41.50
2023-04-27T06:06:58.243Z,41.57
2023-04-27T06:07:58.172Z,41.70
2023-04-27T06:08:58.133Z,41.85
2023-04-27T06:09:58.120Z,41.93
2023-04-27T06:10:58.086Z,42.04
2023-04-27T06:11:58.038Z,42.18
2023-04-27T06:12:58.016Z,42.50
2023-04-27T06:13:57.987Z,42.40
2023-04-27T06:14:57.961Z,42.57
2023-04-27T06:15:57.983Z,42.68
2023-04-27T06:16:57.908Z,42.73
2023-04-27T06:17:57.921Z,42.84
2023-04-27T06:18:57.846Z,42.88
2023-04-27T06:19:57.855Z,43.10
2023-04-27T06:20:57.780Z,43.21
2023-04-27T06:21:57.743Z,43.48
2023-04-27T06:22:57.727Z,43.42
2023-04-27T06:23:57.674Z,43.43
2023-04-27T06:24:57.652Z,43.52
2023-04-27T06:25:57.614Z,44.06
2023-04-27T06:26:57.584Z,43.69
2023-04-27T06:27:57.565Z,43.66
2023-04-27T06:28:57.559Z,43.73
2023-04-27T06:29:57.486Z,43.68
2023-04-27T06:30:57.535Z,43.70
2023-04-27T06:31:57.470Z,43.82
2023-04-27T06:32:57.465Z,43.86
2023-04-27T06:33:57.373Z,43.90
2023-04-27T06:34:57.341Z,44.04
2023-04-27T06:35:57.299Z,44.06
2023-04-27T06:36:57.263Z,44.26
2023-04-27T06:37:57.215Z,44.23
2023-04-27T06:38:57.178Z,44.37
2023-04-27T06:39:57.186Z,44.36
2023-04-27T06:40:57.162Z,44.51
2023-04-27T06:41:57.141Z,44.66
2023-04-27T06:42:57.339Z,44.67
2023-04-27T06:43:58.956Z,44.78
2023-04-27T06:44:57.537Z,44.82
2023-04-27T06:45:57.138Z,44.89
2023-04-27T06:46:57.069Z,45.06
2023-04-27T06:47:57.057Z,45.00
2023-04-27T06:48:57.531Z,45.10
2023-04-27T06:49:57.002Z,45.17
2023-04-27T06:50:56.987Z,45.27
2023-04-27T06:51:56.980Z,45.33
2023-04-27T06:52:56.965Z,45.35
2023-04-27T06:53:56.948Z,45.60
2023-04-27T06:54:56.918Z,45.62
2023-04-27T06:55:56.902Z,45.76
2023-04-27T06:56:57.536Z,45.92
2023-04-27T06:57:56.846Z,45.86
2023-04-27T06:58:56.811Z,46.04
2023-04-27T06:59:56.784Z,46.16
2023-04-27T07:00:57.959Z,46.34
2023-04-27T07:01:56.821Z,46.34
2023-04-27T07:02:56.917Z,46.33
2023-04-27T07:03:56.764Z,46.57
2023-04-27T07:04:56.757Z,46.51
2023-04-27T07:05:56.636Z,46.61
2023-04-27T07:06:56.610Z,46.59
2023-04-27T07:07:56.597Z,46.65
2023-04-27T07:08:56.648Z,46.59
2023-04-27T07:09:56.674Z,46.67
2023-04-27T07:10:56.585Z,46.83
2023-04-27T07:11:56.557Z,46.99
2023-04-27T07:12:56.548Z,47.09
2023-04-27T07:13:56.534Z,47.13
2023-04-27T07:14:56.526Z,47.18
2023-04-27T07:15:56.535Z,47.33
2023-04-27T07:16:56.514Z,47.47
2023-04-27T07:17:56.604Z,48.26
2023-04-27T07:18:56.520Z,48.02
2023-04-27T07:19:56.509Z,46.39
2023-04-27T07:20:56.474Z,40.98
2023-04-27T07:21:56.479Z,40.08
2023-04-27T07:22:56.452Z,41.00
2023-04-27T07:23:56.504Z,41.90
2023-04-27T07:24:56.462Z,42.51
2023-04-27T07:25:56.519Z,42.75
2023-04-27T07:26:57.070Z,42.74
2023-04-27T07:27:57.062Z,42.92
2023-04-27T07:28:57.066Z,43.11
2023-04-27T07:29:56.422Z,43.25
2023-04-27T07:30:56.399Z,43.46
2023-04-27T07:31:56.404Z,43.47
2023-04-27T07:32:56.405Z,43.70
2023-04-27T07:33:56.351Z,43.92
2023-04-27T07:34:56.310Z,43.88
2023-04-27T07:35:56.316Z,43.89
2023-04-27T07:36:56.243Z,44.11
2023-04-27T07:37:56.207Z,44.29
2023-04-27T07:38:56.210Z,44.40
2023-04-27T07:39:56.162Z,44.52
2023-04-27T07:40:56.144Z,44.67
2023-04-27T07:41:56.103Z,44.79
2023-04-27T07:42:56.075Z,44.92
2023-04-27T07:43:56.045Z,45.07
2023-04-27T07:44:56.020Z,45.18
2023-04-27T07:45:56.055Z,45.27
2023-04-27T07:46:56.005Z,45.48
2023-04-27T07:47:58.722Z,45.56
2023-04-27T07:48:55.968Z,45.71
2023-04-27T07:49:55.923Z,45.83
2023-04-27T07:50:55.891Z,45.87
2023-04-27T07:51:55.838Z,46.04
2023-04-27T07:52:56.571Z,46.04
2023-04-27T07:53:55.772Z,46.20
2023-04-27T07:54:55.733Z,46.29
2023-04-27T07:55:55.724Z,46.43
2023-04-27T07:56:55.662Z,46.60
2023-04-27T07:57:55.615Z,46.72
2023-04-27T07:58:55.580Z,46.85
2023-04-27T07:59:56.071Z,46.95
2023-04-27T08:00:55.506Z,47.18
2023-04-27T08:02:04.046Z,47.11
2023-04-27T08:02:56.745Z,47.27
2023-04-27T08:03:55.503Z,47.28
2023-04-27T08:04:55.777Z,47.47
2023-04-27T08:05:55.729Z,47.63
2023-04-27T08:06:55.825Z,47.81
2023-04-27T08:07:55.230Z,47.85
2023-04-27T08:08:55.106Z,48.08
2023-04-27T08:09:55.097Z,46.88
2023-04-27T08:10:55.073Z,46.65
2023-04-27T08:11:55.100Z,47.01
2023-04-27T08:12:55.127Z,45.88
2023-04-27T08:13:55.189Z,44.21
2023-04-27T08:14:55.124Z,42.35
2023-04-27T08:15:56.068Z,40.93
2023-04-27T08:16:55.115Z,39.47
2023-04-27T08:17:55.067Z,38.23
2023-04-27T08:18:55.008Z,37.63
2023-04-27T08:19:55.006Z,37.02
2023-04-27T08:20:55.004Z,36.49
2023-04-27T08:21:55.020Z,35.74
2023-04-27T08:22:55.042Z,34.97
2023-04-27T08:23:55.091Z,35.90
2023-04-27T08:24:55.115Z,36.74
2023-04-27T08:25:55.151Z,37.11
2023-04-27T08:26:55.187Z,36.95
2023-04-27T08:27:55.207Z,37.33
2023-04-27T08:28:55.233Z,38.12
2023-04-27T08:29:55.257Z,38.58
2023-04-27T08:30:55.331Z,38.95
2023-04-27T08:31:56.792Z,39.11
2023-04-27T08:32:55.367Z,39.32
2023-04-27T08:33:55.275Z,39.49
2023-04-27T08:34:55.244Z,39.67
2023-04-27T08:35:55.304Z,39.86
2023-04-27T08:36:55.232Z,40.04
2023-04-27T08:37:55.202Z,40.23
2023-04-27T08:38:55.177Z,40.52
2023-04-27T08:39:55.145Z,40.68
2023-04-27T08:40:55.117Z,40.84
2023-04-27T08:41:55.104Z,40.98
2023-04-27T08:42:55.065Z,41.18
2023-04-27T08:43:55.027Z,41.28
2023-04-27T08:44:55.002Z,41.59
2023-04-27T08:45:55.067Z,41.71
2023-04-27T08:46:55.016Z,41.75
2023-04-27T08:47:55.098Z,41.91
2023-04-27T08:48:55.105Z,42.08
2023-04-27T08:49:55.044Z,42.31
2023-04-27T08:50:55.157Z,42.35
2023-04-27T08:51:55.098Z,42.59
2023-04-27T08:52:55.120Z,42.72
2023-04-27T08:53:55.162Z,42.90
2023-04-27T08:54:55.185Z,43.06
2023-04-27T08:55:55.231Z,43.22
2023-04-27T08:56:57.026Z,43.33
2023-04-27T08:57:55.256Z,43.44
2023-04-27T08:58:55.292Z,43.60
2023-04-27T08:59:56.005Z,43.67
2023-04-27T09:00:55.332Z,43.81
2023-04-27T09:01:56.124Z,43.92
2023-04-27T09:02:55.580Z,44.18
2023-04-27T09:03:55.732Z,44.26
2023-04-27T09:04:55.539Z,44.28
2023-04-27T09:06:04.267Z,44.56
2023-04-27T09:06:56.406Z,44.68
2023-04-27T09:07:55.338Z,44.72
2023-04-27T09:08:55.298Z,44.87
2023-04-27T09:09:56.005Z,45.03
2023-04-27T09:10:55.209Z,45.15
2023-04-27T09:11:55.173Z,45.22
2023-04-27T09:12:55.121Z,45.35
2023-04-27T09:13:55.085Z,45.50
2023-04-27T09:14:55.114Z,45.66
2023-04-27T09:15:55.060Z,45.64
2023-04-27T09:16:55.038Z,45.75
2023-04-27T09:17:55.070Z,45.52
2023-04-27T09:18:55.068Z,42.63
2023-04-27T09:19:55.068Z,41.23
2023-04-27T09:20:55.053Z,39.75
2023-04-27T09:21:55.021Z,39.36
2023-04-27T09:22:55.007Z,40.53
2023-04-27T09:23:54.964Z,40.19
2023-04-27T09:24:54.939Z,40.97
2023-04-27T09:25:54.900Z,42.10
2023-04-27T09:26:54.932Z,42.25
2023-04-27T09:27:54.834Z,42.52
2023-04-27T09:28:54.824Z,42.38
2023-04-27T09:29:54.860Z,42.43
2023-04-27T09:30:54.769Z,42.40
2023-04-27T09:31:54.807Z,42.34
2023-04-27T09:32:54.763Z,42.31
2023-04-27T09:33:54.687Z,42.34
2023-04-27T09:34:54.653Z,42.27
2023-04-27T09:35:55.590Z,42.34
2023-04-27T09:36:54.588Z,42.32
2023-04-27T09:37:54.562Z,42.30
2023-04-27T09:38:54.530Z,42.27
2023-04-27T09:39:54.479Z,42.40
2023-04-27T09:40:54.437Z,42.38
2023-04-27T09:41:54.393Z,42.36
2023-04-27T09:42:54.375Z,42.41
2023-04-27T09:43:56.360Z,42.36
2023-04-27T09:44:54.281Z,42.43
2023-04-27T09:45:54.259Z,42.47
2023-04-27T09:46:54.267Z,42.47
2023-04-27T09:47:54.213Z,42.50
2023-04-27T09:48:54.133Z,42.41
2023-04-27T09:49:54.122Z,42.42
2023-04-27T09:50:54.598Z,42.45
2023-04-27T09:51:54.013Z,42.44
2023-04-27T09:52:53.987Z,42.43
2023-04-27T09:53:53.959Z,42.42
2023-04-27T09:54:53.902Z,42.41
2023-04-27T09:55:54.859Z,42.40
2023-04-27T09:56:53.833Z,42.42
2023-04-27T09:57:53.793Z,42.50
2023-04-27T09:58:56.614Z,42.45
2023-04-27T09:59:53.731Z,42.38
2023-04-27T10:00:53.718Z,42.43
2023-04-27T10:01:53.640Z,42.45
2023-04-27T10:02:54.324Z,42.39
2023-04-27T10:03:53.820Z,42.38
2023-04-27T10:04:53.534Z,42.41
2023-04-27T10:05:53.481Z,42.41
2023-04-27T10:06:53.703Z,42.40
2023-04-27T10:07:53.438Z,42.39
2023-04-27T10:08:53.354Z,42.36
2023-04-27T10:09:53.326Z,42.39
2023-04-27T10:10:53.279Z,42.38
2023-04-27T10:11:53.291Z,42.35
2023-04-27T10:12:53.204Z,42.29
2023-04-27T10:13:54.397Z,42.37
2023-04-27T10:14:53.136Z,42.37
2023-04-27T10:15:53.080Z,42.31
2023-04-27T10:16:53.094Z,42.24
2023-04-27T10:17:53.156Z,42.30
2023-04-27T10:18:52.973Z,42.24
2023-04-27T10:19:54.608Z,42.26
2023-04-27T10:20:52.974Z,42.23
2023-04-27T10:21:52.916Z,42.30
2023-04-27T10:22:52.901Z,42.31
2023-04-27T10:23:52.884Z,42.28
2023-04-27T10:24:52.870Z,42.28
2023-04-27T10:25:52.849Z,42.36
2023-04-27T10:26:52.837Z,42.29
2023-04-27T10:27:52.814Z,42.24
2023-04-27T10:28:52.793Z,42.25
2023-04-27T10:29:52.869Z,42.32
2023-04-27T10:30:52.785Z,42.24
2023-04-27T10:31:52.747Z,42.30
2023-04-27T10:32:52.757Z,42.30
2023-04-27T10:33:52.708Z,42.27
2023-04-27T10:34:52.698Z,42.23
2023-04-27T10:35:52.673Z,42.23
2023-04-27T10:36:52.662Z,42.24
2023-04-27T10:37:52.637Z,42.24
2023-04-27T10:38:53.117Z,42.16
2023-04-27T10:39:54.763Z,42.14
2023-04-27T10:40:52.593Z,42.14
2023-04-27T10:41:52.588Z,42.14
2023-04-27T10:42:52.562Z,42.14
2023-04-27T10:43:52.557Z,42.15
2023-04-27T10:44:52.549Z,42.14
2023-04-27T10:45:52.549Z,42.14
2023-04-27T10:46:52.518Z,42.16
2023-04-27T10:47:52.503Z,42.12
2023-04-27T10:48:52.468Z,42.09
2023-04-27T10:49:52.518Z,42.03
2023-04-27T10:50:52.453Z,42.07
2023-04-27T10:51:52.440Z,42.12
2023-04-27T10:52:52.433Z,42.14
2023-04-27T10:53:52.410Z,42.12
2023-04-27T10:54:52.415Z,42.08
2023-04-27T10:55:52.392Z,42.11
2023-04-27T10:56:52.396Z,42.11
2023-04-27T10:57:52.384Z,42.12
2023-04-27T10:58:52.373Z,42.07
2023-04-27T10:59:52.363Z,42.00
2023-04-27T11:00:52.349Z,41.95
2023-04-27T11:01:52.436Z,41.98
2023-04-27T11:02:52.394Z,41.95
2023-04-27T11:03:52.376Z,41.91
2023-04-27T11:04:52.336Z,41.92
2023-04-27T11:05:52.299Z,41.87
2023-04-27T11:06:52.286Z,41.85
2023-04-27T11:07:52.279Z,41.83
2023-04-27T11:08:52.258Z,41.81
2023-04-27T11:09:52.318Z,41.77
2023-04-27T11:10:52.291Z,41.74
2023-04-27T11:11:52.228Z,41.72
2023-04-27T11:12:52.211Z,41.64
2023-04-27T11:13:52.194Z,41.69
2023-04-27T11:14:52.181Z,41.67
2023-04-27T11:15:52.210Z,41.67
2023-04-27T11:16:52.177Z,41.70
2023-04-27T11:17:52.203Z,41.65
2023-04-27T11:18:52.127Z,41.57
2023-04-27T11:19:52.115Z,41.53
2023-04-27T11:20:52.088Z,41.45
2023-04-27T11:21:52.063Z,41.43
2023-04-27T11:22:52.058Z,41.35
2023-04-27T11:23:52.103Z,41.34
2023-04-27T11:24:52.029Z,41.24
2023-04-27T11:25:51.989Z,41.33
2023-04-27T11:26:51.973Z,41.33
2023-04-27T11:27:52.014Z,41.27
2023-04-27T11:28:51.940Z,41.26
2023-04-27T11:29:51.914Z,41.22
2023-04-27T11:30:51.869Z,41.29
2023-04-27T11:31:52.673Z,41.19
2023-04-27T11:32:51.852Z,41.26
2023-04-27T11:33:51.797Z,41.26
2023-04-27T11:34:53.418Z,41.31
2023-04-27T11:35:51.725Z,41.21
2023-04-27T11:36:51.698Z,41.19
2023-04-27T11:37:51.665Z,41.24
2023-04-27T11:38:51.652Z,41.24
2023-04-27T11:39:51.591Z,41.19
2023-04-27T11:40:51.565Z,41.12
2023-04-27T11:41:51.529Z,41.10
2023-04-27T11:42:51.489Z,41.15
2023-04-27T11:43:51.469Z,41.12
2023-04-27T11:44:51.429Z,41.08
2023-04-27T11:45:51.481Z,41.08
2023-04-27T11:46:51.376Z,41.03
2023-04-27T11:47:51.352Z,41.04
2023-04-27T11:48:51.258Z,41.03
2023-04-27T11:49:51.233Z,41.04
2023-04-27T11:50:51.182Z,40.97
2023-04-27T11:51:51.138Z,40.95
2023-04-27T11:52:51.104Z,40.95
2023-04-27T11:53:51.051Z,40.95
2023-04-27T11:54:51.019Z,40.96
2023-04-27T11:55:50.969Z,40.89
2023-04-27T11:56:50.954Z,40.85
2023-04-27T11:57:50.926Z,40.87
2023-04-27T11:58:50.905Z,40.84
2023-04-27T11:59:50.843Z,40.89
2023-04-27T12:00:50.813Z,40.79
2023-04-27T12:01:50.786Z,40.84
2023-04-27T12:02:50.864Z,40.79
2023-04-27T12:03:50.809Z,40.79
2023-04-27T12:04:51.359Z,40.74
2023-04-27T12:05:50.695Z,40.78
2023-04-27T12:06:51.570Z,40.73
2023-04-27T12:07:50.565Z,40.75
2023-04-27T12:08:50.521Z,40.72
2023-04-27T12:09:50.472Z,40.65
2023-04-27T12:10:50.444Z,40.67
2023-04-27T12:11:50.413Z,40.66
2023-04-27T12:12:50.395Z,40.67
2023-04-27T12:13:50.362Z,40.61
2023-04-27T12:14:50.390Z,40.61
2023-04-27T12:15:50.324Z,40.62
2023-04-27T12:16:50.791Z,40.61
2023-04-27T12:17:50.385Z,40.61
2023-04-27T12:18:50.329Z,40.57
2023-04-27T12:19:50.354Z,40.53
2023-04-27T12:20:50.369Z,40.56
2023-04-27T12:21:50.353Z,40.56
2023-04-27T12:22:50.367Z,40.54
2023-04-27T12:23:50.351Z,40.50
2023-04-27T12:24:50.346Z,40.46
2023-04-27T12:25:50.343Z,40.46
2023-04-27T12:26:50.358Z,40.44
2023-04-27T12:27:50.376Z,40.46
2023-04-27T12:28:51.160Z,40.41
2023-04-27T12:29:50.413Z,40.40
2023-04-27T12:30:50.527Z,40.43
2023-04-27T12:31:50.442Z,40.38
2023-04-27T12:32:50.521Z,40.33
2023-04-27T12:33:50.488Z,40.31
2023-04-27T12:34:50.475Z,40.35
2023-04-27T12:35:50.485Z,40.30
2023-04-27T12:36:50.477Z,40.28
2023-04-27T12:37:50.500Z,40.28
2023-04-27T12:38:50.579Z,40.24
2023-04-27T12:39:50.600Z,40.25
2023-04-27T12:40:50.602Z,40.22
2023-04-27T12:41:50.573Z,40.17
2023-04-27T12:42:50.590Z,40.23
2023-04-27T12:43:50.604Z,40.17
2023-04-27T12:44:50.626Z,40.16
2023-04-27T12:45:50.664Z,40.09
2023-04-27T12:46:50.770Z,40.12
2023-04-27T12:48:01.822Z,40.10
2023-04-27T12:48:51.648Z,40.11
2023-04-27T12:49:50.554Z,40.05
2023-04-27T12:50:50.483Z,40.03
2023-04-27T12:51:50.448Z,40.01
2023-04-27T12:52:50.496Z,40.01